Alamo, Georgia
Current Conditions -  °F | °C
As of 8:15 PM on Friday 31 Oct 2014 (Local Time) from KAZE Reporting Station
Scattered Clouds Scattered Clouds  
Wind Chill: 65°   Ceiling: Unl
Heat Index: 65°   Visibility: 10mi
Dew Point: 44°   Wind: 8mph
Humidity: 47%   Direction: 320°NW
Pressure: 29.86"   Gusts: NA
Location:  32.15°N, 82.78°W
Report Text: KAZE 010015Z AUTO 32007KT 10SM SCT080 SCT100 18/07 A2986 RMK AO2 T01810066
Loading
Personal Weather Stations






























Interactive Weather Map
Tropical Storm Tracking
New forecast layout! Learn more

10-Day Weather Forecast

Advertisements
Track Severe Weather on mobile